createdAt,value
2017-11-03T00:00:38.749Z,37.90
2017-11-03T00:03:07.091Z,38.10
2017-11-03T00:05:36.220Z,40.13
2017-11-03T00:08:04.801Z,39.50
2017-11-03T00:10:33.140Z,39.90
2017-11-03T00:13:02.267Z,40.77
2017-11-03T00:15:30.620Z,40.30
2017-11-03T00:17:58.976Z,40.20
2017-11-03T00:20:27.353Z,38.90
2017-11-03T00:22:55.712Z,40.70
2017-11-03T00:25:24.281Z,43.50
2017-11-03T00:27:52.619Z,43.07
2017-11-03T00:30:20.975Z,41.70
2017-11-03T00:32:49.335Z,44.70
2017-11-03T00:35:17.960Z,45.13
2017-11-03T00:37:46.314Z,45.03
2017-11-03T00:40:14.678Z,44.10
2017-11-03T00:42:43.056Z,42.77
2017-11-03T00:45:11.458Z,41.97
2017-11-03T00:47:39.813Z,41.23
2017-11-03T00:50:08.425Z,43.10
2017-11-03T00:52:36.840Z,40.40
2017-11-03T00:55:04.872Z,40.40
2017-11-03T00:57:33.243Z,41.00
2017-11-03T01:00:01.595Z,44.33
2017-11-03T01:02:29.944Z,41.80
2017-11-03T01:04:58.313Z,43.60
2017-11-03T01:07:26.909Z,42.07
2017-11-03T01:09:55.272Z,43.60
2017-11-03T01:12:23.880Z,41.30
2017-11-03T01:14:52.241Z,44.30
2017-11-03T01:17:21.399Z,41.43
2017-11-03T01:19:49.953Z,43.40
2017-11-03T01:22:18.289Z,43.00
2017-11-03T01:24:47.624Z,44.33
2017-11-03T01:27:15.969Z,42.40
2017-11-03T01:29:45.109Z,43.93
2017-11-03T01:32:13.114Z,42.47
2017-11-03T01:34:42.965Z,42.63
2017-11-03T01:37:11.330Z,41.07
2017-11-03T01:39:39.693Z,40.40
2017-11-03T01:42:08.097Z,40.30
2017-11-03T01:44:36.473Z,42.40
2017-11-03T01:47:04.808Z,43.37
2017-11-03T01:49:33.591Z,41.73
2017-11-03T01:52:01.909Z,42.17
2017-11-03T01:54:30.260Z,42.30
2017-11-03T01:56:58.764Z,41.13
2017-11-03T01:59:27.104Z,43.50
2017-11-03T02:01:56.436Z,42.53
2017-11-03T02:04:24.777Z,42.87
2017-11-03T02:06:53.295Z,43.90
2017-11-03T02:09:21.639Z,44.40
2017-11-03T02:11:50.776Z,43.30
2017-11-03T02:14:19.132Z,42.60
2017-11-03T02:16:47.488Z,43.83
2017-11-03T02:19:15.502Z,44.27
2017-11-03T02:21:43.341Z,45.20
2017-11-03T02:24:11.333Z,46.73
2017-11-03T02:26:39.707Z,42.60
2017-11-03T02:29:08.067Z,42.20
2017-11-03T02:31:36.413Z,46.73
2017-11-03T02:34:04.441Z,44.67
2017-11-03T02:36:32.804Z,41.10
2017-11-03T02:39:01.155Z,40.93
2017-11-03T02:41:29.517Z,43.83
2017-11-03T02:43:57.864Z,43.80
2017-11-03T02:46:26.225Z,45.20
2017-11-03T02:48:54.581Z,41.23
2017-11-03T02:51:23.156Z,42.30
2017-11-03T02:53:51.536Z,43.63
2017-11-03T02:56:20.455Z,43.10
2017-11-03T02:58:50.336Z,41.30
2017-11-03T03:01:18.894Z,41.97
2017-11-03T03:03:47.367Z,40.07
2017-11-03T03:06:15.729Z,42.00
2017-11-03T03:08:44.101Z,43.10
2017-11-03T03:11:12.470Z,43.30
2017-11-03T03:13:40.852Z,45.57
2017-11-03T03:16:08.875Z,40.13
2017-11-03T03:18:37.215Z,39.60
2017-11-03T03:21:05.734Z,43.87
2017-11-03T03:23:34.087Z,43.83
2017-11-03T03:26:02.444Z,44.30
2017-11-03T03:28:30.798Z,44.23
2017-11-03T03:30:59.153Z,43.70
2017-11-03T03:33:27.509Z,41.87
2017-11-03T03:35:55.528Z,42.00
2017-11-03T03:38:23.970Z,41.93
2017-11-03T03:40:53.088Z,41.43
2017-11-03T03:43:21.440Z,43.80
2017-11-03T03:45:50.236Z,40.47
2017-11-03T03:48:17.936Z,41.63
2017-11-03T03:50:46.288Z,39.70
2017-11-03T03:53:15.429Z,41.87
2017-11-03T03:55:43.798Z,43.63
2017-11-03T03:58:12.167Z,40.20
2017-11-03T04:00:40.433Z,43.97
2017-11-03T04:03:08.791Z,42.13
2017-11-03T04:05:37.145Z,40.50
2017-11-03T04:08:05.493Z,40.23
2017-11-03T04:10:33.505Z,39.60
2017-11-03T04:13:01.513Z,40.00
2017-11-03T04:15:29.522Z,41.63
2017-11-03T04:17:58.310Z,39.43
2017-11-03T04:20:26.687Z,40.13
2017-11-03T04:22:55.041Z,43.23
2017-11-03T04:25:23.056Z,40.47
2017-11-03T04:27:51.173Z,40.10
2017-11-03T04:30:19.605Z,41.20
2017-11-03T04:32:48.191Z,42.20
2017-11-03T04:35:16.674Z,40.57
2017-11-03T04:37:45.040Z,42.93
2017-11-03T04:40:13.958Z,39.83
2017-11-03T04:42:42.319Z,41.83
2017-11-03T04:45:10.710Z,38.10
2017-11-03T04:47:39.085Z,42.33
2017-11-03T04:50:07.671Z,40.70
2017-11-03T04:52:36.042Z,41.97
2017-11-03T04:55:04.561Z,40.97
2017-11-03T04:57:33.377Z,40.60
2017-11-03T05:00:01.741Z,39.63
2017-11-03T05:02:30.114Z,40.37
2017-11-03T05:04:58.491Z,41.53
2017-11-03T05:07:26.856Z,38.60
2017-11-03T05:09:56.177Z,41.73
2017-11-03T05:12:24.626Z,40.80
2017-11-03T05:14:52.991Z,39.70
2017-11-03T05:17:21.407Z,38.70
2017-11-03T05:19:50.019Z,40.10
2017-11-03T05:22:18.614Z,42.40
2017-11-03T05:24:46.975Z,41.30
2017-11-03T05:27:15.353Z,40.10
2017-11-03T05:29:43.726Z,40.40
2017-11-03T05:32:12.108Z,40.80
2017-11-03T05:34:40.137Z,40.33
2017-11-03T05:37:07.820Z,41.50
2017-11-03T05:39:36.183Z,39.43
2017-11-03T05:42:04.210Z,39.53
2017-11-03T05:44:32.587Z,41.07
2017-11-03T05:47:01.722Z,41.80
2017-11-03T05:49:30.097Z,41.57
2017-11-03T05:51:58.479Z,41.43
2017-11-03T05:54:26.497Z,40.83
2017-11-03T05:56:54.864Z,37.50
2017-11-03T05:59:23.241Z,44.10
2017-11-03T06:01:51.607Z,40.00
2017-11-03T06:04:19.968Z,49.00
2017-11-03T06:06:48.347Z,43.80
2017-11-03T06:09:16.725Z,47.77
2017-11-03T06:11:45.097Z,45.53
2017-11-03T06:14:13.471Z,42.53
2017-11-03T06:16:41.843Z,45.73
2017-11-03T06:19:10.230Z,47.80
2017-11-03T06:21:38.408Z,50.70
2017-11-03T06:24:07.560Z,52.70
2017-11-03T06:26:35.752Z,49.37
2017-11-03T06:29:04.131Z,52.23
2017-11-03T06:31:32.509Z,49.70
2017-11-03T06:34:00.890Z,51.03
2017-11-03T06:36:29.260Z,46.50
2017-11-03T06:38:57.635Z,48.80
2017-11-03T06:41:25.881Z,47.77
2017-11-03T06:43:54.256Z,48.37
2017-11-03T06:46:22.290Z,48.90
2017-11-03T06:48:51.431Z,47.70
2017-11-03T06:51:19.961Z,50.07
2017-11-03T06:53:48.323Z,48.90
2017-11-03T06:56:16.704Z,49.07
2017-11-03T06:58:45.076Z,47.63
2017-11-03T07:01:13.546Z,46.70
2017-11-03T07:03:41.922Z,47.47
2017-11-03T07:06:09.943Z,46.87
2017-11-03T07:08:38.342Z,47.70
2017-11-03T07:11:06.939Z,47.13
2017-11-03T07:13:35.312Z,49.30
2017-11-03T07:16:03.682Z,48.10
2017-11-03T07:18:32.068Z,48.17
2017-11-03T07:21:00.089Z,45.57
2017-11-03T07:23:28.455Z,49.93
2017-11-03T07:25:56.827Z,51.50
2017-11-03T07:28:25.202Z,49.47
2017-11-03T07:30:53.566Z,47.77
2017-11-03T07:33:21.943Z,49.20
2017-11-03T07:35:50.314Z,48.10
2017-11-03T07:38:18.833Z,50.73
2017-11-03T07:40:47.201Z,48.63
2017-11-03T07:43:19.171Z,52.00
2017-11-03T07:45:48.319Z,52.30
2017-11-03T07:48:16.693Z,53.67
2017-11-03T07:50:45.322Z,48.70
2017-11-03T07:53:13.898Z,51.07
2017-11-03T07:55:43.131Z,49.73
2017-11-03T07:58:11.507Z,48.53
2017-11-03T08:00:39.889Z,49.10
2017-11-03T08:03:09.143Z,49.23
2017-11-03T08:05:37.622Z,52.53
2017-11-03T08:08:06.008Z,50.33
2017-11-03T08:10:34.388Z,50.47
2017-11-03T08:13:02.795Z,49.30
2017-11-03T08:15:31.140Z,47.60
2017-11-03T08:17:59.559Z,52.90
2017-11-03T08:20:28.458Z,49.03
2017-11-03T08:22:57.620Z,49.67
2017-11-03T08:25:25.978Z,52.80
2017-11-03T08:27:54.348Z,47.47
2017-11-03T08:30:22.730Z,47.50
2017-11-03T08:32:51.096Z,48.83
2017-11-03T08:35:19.479Z,45.70
2017-11-03T08:37:47.867Z,50.90
2017-11-03T08:40:16.251Z,48.80
2017-11-03T08:42:44.636Z,44.13
2017-11-03T08:45:13.007Z,45.43
2017-11-03T08:47:41.236Z,46.87
2017-11-03T08:50:09.836Z,47.63
2017-11-03T08:52:38.207Z,47.60
2017-11-03T08:55:06.799Z,48.97
2017-11-03T08:57:35.171Z,46.80
2017-11-03T09:00:03.192Z,47.27
2017-11-03T09:02:31.587Z,44.60
2017-11-03T09:04:59.963Z,42.20
2017-11-03T09:07:30.103Z,41.53
2017-11-03T09:09:58.488Z,40.13
2017-11-03T09:12:26.506Z,38.40
2017-11-03T09:14:54.876Z,38.30
2017-11-03T09:17:23.060Z,38.87
2017-11-03T09:19:51.453Z,37.90
2017-11-03T09:22:19.129Z,37.93
2017-11-03T09:24:46.877Z,37.37
2017-11-03T09:27:15.235Z,35.23
2017-11-03T09:29:44.243Z,36.50
2017-11-03T09:32:12.258Z,36.03
2017-11-03T09:34:40.998Z,37.80
2017-11-03T09:37:09.365Z,38.10
2017-11-03T09:39:37.742Z,36.80
2017-11-03T09:42:06.407Z,36.60
2017-11-03T09:44:34.778Z,35.47
2017-11-03T09:47:03.150Z,37.37
2017-11-03T09:49:31.528Z,34.87
2017-11-03T09:52:00.662Z,36.07
2017-11-03T09:54:28.350Z,33.60
2017-11-03T09:56:56.733Z,37.07
2017-11-03T09:59:25.089Z,37.27
2017-11-03T10:01:53.459Z,34.40
2017-11-03T10:04:21.831Z,33.43
2017-11-03T10:06:50.207Z,35.40
2017-11-03T10:09:18.575Z,37.20
2017-11-03T10:11:46.964Z,36.40
2017-11-03T10:14:15.143Z,34.77
2017-11-03T10:16:43.524Z,35.97
2017-11-03T10:19:11.924Z,35.50
2017-11-03T10:21:40.462Z,34.50
2017-11-03T10:24:08.714Z,35.60
2017-11-03T10:26:38.846Z,32.20
2017-11-03T10:29:07.229Z,34.73
2017-11-03T10:31:35.599Z,31.20
2017-11-03T10:34:03.977Z,34.60
2017-11-03T10:36:32.340Z,33.10
2017-11-03T10:39:00.708Z,34.00
2017-11-03T10:41:29.094Z,35.33
2017-11-03T10:43:57.521Z,33.80
2017-11-03T10:46:25.904Z,35.13
2017-11-03T10:48:54.287Z,35.40
2017-11-03T10:51:21.962Z,34.87
2017-11-03T10:53:49.648Z,34.97
2017-11-03T10:56:18.321Z,34.50
2017-11-03T10:58:46.722Z,31.00
2017-11-03T11:01:14.414Z,32.43
2017-11-03T11:03:42.217Z,34.13
2017-11-03T11:06:10.595Z,35.80
2017-11-03T11:08:38.982Z,35.27
2017-11-03T11:11:07.360Z,36.00
2017-11-03T11:13:35.734Z,34.93
2017-11-03T11:16:04.102Z,34.20
2017-11-03T11:18:32.513Z,36.50
2017-11-03T11:21:02.423Z,36.10
2017-11-03T11:23:30.789Z,33.53
2017-11-03T11:25:59.160Z,34.80
2017-11-03T11:28:30.274Z,36.07
2017-11-03T11:31:00.096Z,38.10
2017-11-03T11:33:29.139Z,38.10
2017-11-03T11:35:56.809Z,38.67
2017-11-03T11:38:24.840Z,36.70
2017-11-03T11:40:52.555Z,35.00
2017-11-03T11:43:20.588Z,39.57
2017-11-03T11:45:49.031Z,36.77
2017-11-03T11:48:16.705Z,36.40
2017-11-03T11:50:44.736Z,37.90
2017-11-03T11:53:12.406Z,34.33
2017-11-03T11:55:41.959Z,35.97
2017-11-03T11:58:10.076Z,38.93
2017-11-03T12:00:38.042Z,38.67
2017-11-03T12:03:05.741Z,37.70
2017-11-03T12:18:28.788Z,35.03
2017-11-03T12:20:57.519Z,38.33
2017-11-03T12:23:25.287Z,37.27
2017-11-03T12:25:53.930Z,37.30
2017-11-03T12:28:21.967Z,37.67
2017-11-03T12:30:49.996Z,40.97
2017-11-03T12:33:17.692Z,39.20
2017-11-03T12:35:45.744Z,40.90
2017-11-03T12:38:13.459Z,38.63
2017-11-03T12:40:41.960Z,37.67
2017-11-03T12:43:09.653Z,36.10
2017-11-03T12:45:37.532Z,36.60
2017-11-03T12:48:06.002Z,36.07
2017-11-03T12:50:34.700Z,35.83
2017-11-03T12:53:02.664Z,37.20
2017-11-03T12:55:30.336Z,38.17
2017-11-03T12:57:58.824Z,37.30
2017-11-03T13:00:27.267Z,35.53
2017-11-03T13:02:55.314Z,33.30
2017-11-03T13:05:23.021Z,34.80
2017-11-03T13:07:50.782Z,36.40
2017-11-03T13:10:18.639Z,34.70
2017-11-03T13:12:47.106Z,35.37
2017-11-03T13:15:14.835Z,32.50
2017-11-03T13:17:42.531Z,33.67
2017-11-03T13:20:10.568Z,34.40
2017-11-03T13:22:38.941Z,33.10
2017-11-03T13:25:06.963Z,31.73
2017-11-03T13:27:35.636Z,32.77
2017-11-03T13:30:03.313Z,33.60
2017-11-03T13:32:31.370Z,31.77
2017-11-03T13:34:59.079Z,32.73
2017-11-03T13:37:27.523Z,31.60
2017-11-03T13:39:55.563Z,34.17
2017-11-03T13:42:25.216Z,32.57
2017-11-03T13:44:53.489Z,31.60
2017-11-03T13:47:21.173Z,32.57
2017-11-03T13:49:49.407Z,31.77
2017-11-03T13:52:17.853Z,33.50
2017-11-03T13:54:46.983Z,33.53
2017-11-03T13:57:15.021Z,31.20
2017-11-03T13:59:43.439Z,32.30
2017-11-03T14:02:11.950Z,31.10
2017-11-03T14:04:40.325Z,32.03
2017-11-03T14:07:08.705Z,34.50
2017-11-03T14:09:36.395Z,32.90
2017-11-03T14:12:05.373Z,34.40
2017-11-03T14:14:33.074Z,31.90
2017-11-03T14:17:01.455Z,33.20
2017-11-03T14:19:29.843Z,32.67
2017-11-03T14:21:58.215Z,32.10
2017-11-03T14:24:26.588Z,31.47
2017-11-03T14:26:55.050Z,32.87
2017-11-03T14:29:23.624Z,34.60
2017-11-03T14:31:51.994Z,32.60
2017-11-03T14:34:20.907Z,33.40
2017-11-03T14:36:49.585Z,34.73
2017-11-03T14:39:18.169Z,35.33
2017-11-03T14:54:42.421Z,32.73
2017-11-03T14:57:12.525Z,33.97
2017-11-03T14:59:44.902Z,32.87
2017-11-03T15:02:13.271Z,34.37
2017-11-03T15:04:41.632Z,32.60
2017-11-03T15:07:10.004Z,32.30
2017-11-03T15:09:38.384Z,33.83
2017-11-03T15:12:08.789Z,35.33
2017-11-03T15:14:37.929Z,35.90
2017-11-03T15:17:06.299Z,33.77
2017-11-03T15:19:34.233Z,34.57
2017-11-03T15:22:06.768Z,35.87
2017-11-03T15:24:40.862Z,33.30
2017-11-03T15:27:09.237Z,32.50
2017-11-03T15:29:37.266Z,33.80
2017-11-03T15:32:16.164Z,34.47
2017-11-03T15:44:25.304Z,29.80
2017-11-03T15:46:53.720Z,35.50
2017-11-03T15:49:24.153Z,31.77
2017-11-03T15:51:52.176Z,31.47
2017-11-03T15:54:21.373Z,32.13
2017-11-03T15:56:49.820Z,32.13
2017-11-03T15:59:18.275Z,32.40
2017-11-03T16:01:46.680Z,32.30
2017-11-03T16:04:15.043Z,32.53
2017-11-03T16:06:44.289Z,34.00
2017-11-03T16:09:12.653Z,31.50
2017-11-03T16:11:41.037Z,32.43
2017-11-03T16:14:09.463Z,32.33
2017-11-03T16:16:37.837Z,33.43
2017-11-03T16:19:06.426Z,32.97
2017-11-03T16:21:35.056Z,32.17
2017-11-03T16:24:03.496Z,33.53
2017-11-03T16:26:32.077Z,31.37
2017-11-03T16:29:00.669Z,33.10
2017-11-03T16:31:29.077Z,33.23
2017-11-03T16:33:57.444Z,32.73
2017-11-03T16:36:32.003Z,36.43
2017-11-03T16:39:01.203Z,42.77
2017-11-03T16:41:29.614Z,35.03
2017-11-03T16:43:57.687Z,35.30
2017-11-03T16:46:26.068Z,34.63
2017-11-03T16:48:54.458Z,33.90
2017-11-03T16:51:29.239Z,34.27
2017-11-03T16:53:57.740Z,33.10
2017-11-03T16:56:25.492Z,34.60
2017-11-03T16:58:53.885Z,34.80
2017-11-03T17:01:22.031Z,33.10
2017-11-03T17:03:51.136Z,35.20
2017-11-03T17:06:19.156Z,34.33
2017-11-03T17:08:48.989Z,34.67
2017-11-03T17:11:17.875Z,34.30
2017-11-03T17:13:46.339Z,34.73
2017-11-03T17:16:14.525Z,36.30
2017-11-03T17:18:42.897Z,40.53
2017-11-03T17:21:11.263Z,37.87
2017-11-03T17:23:39.630Z,39.07
2017-11-03T17:26:08.000Z,38.37
2017-11-03T17:28:36.529Z,37.07
2017-11-03T17:31:04.904Z,36.97
2017-11-03T17:33:33.585Z,33.37
2017-11-03T17:36:01.967Z,33.93
2017-11-03T17:38:30.343Z,35.03
2017-11-03T17:40:58.720Z,36.67
2017-11-03T17:43:27.094Z,35.57
2017-11-03T17:45:55.476Z,35.47
2017-11-03T17:48:23.852Z,36.97
2017-11-03T17:50:52.248Z,36.87
2017-11-03T17:53:20.630Z,37.17
2017-11-03T17:55:48.999Z,37.90
2017-11-03T17:58:17.366Z,37.00
2017-11-03T18:00:45.767Z,37.70
2017-11-03T18:03:14.142Z,36.43
2017-11-03T18:05:42.331Z,35.60
2017-11-03T18:08:10.688Z,35.10
2017-11-03T18:10:38.886Z,36.67
2017-11-03T18:13:07.847Z,37.13
2017-11-03T18:15:36.220Z,36.93
2017-11-03T18:18:04.603Z,36.13
2017-11-03T18:20:32.643Z,34.50
2017-11-03T18:23:01.014Z,36.73
2017-11-03T18:25:29.392Z,34.07
2017-11-03T18:27:57.857Z,35.50
2017-11-03T18:30:26.276Z,34.77
2017-11-03T18:32:54.914Z,37.17
2017-11-03T18:35:22.593Z,35.20
2017-11-03T18:37:50.996Z,42.30
2017-11-03T18:40:19.374Z,35.20
2017-11-03T18:42:47.818Z,33.23
2017-11-03T18:45:16.233Z,36.93
2017-11-03T18:47:44.829Z,36.20
2017-11-03T18:50:13.199Z,35.97
2017-11-03T18:52:43.012Z,35.97
2017-11-03T18:55:11.032Z,36.30
2017-11-03T18:57:39.469Z,37.30
2017-11-03T19:00:07.852Z,36.47
2017-11-03T19:02:36.220Z,39.33
2017-11-03T19:05:04.675Z,35.33
2017-11-03T19:07:33.055Z,35.13
2017-11-03T19:10:02.217Z,36.17
2017-11-03T19:12:30.588Z,40.57
2017-11-03T19:14:58.966Z,37.97
2017-11-03T19:17:27.333Z,39.00
2017-11-03T19:19:55.704Z,36.93
2017-11-03T19:22:24.072Z,37.60
2017-11-03T19:24:52.261Z,38.23
2017-11-03T19:27:20.639Z,41.07
2017-11-03T19:29:48.827Z,36.40
2017-11-03T19:32:19.010Z,37.17
2017-11-03T19:34:47.380Z,35.90
2017-11-03T19:37:15.758Z,36.90
2017-11-03T19:39:43.935Z,37.27
2017-11-03T19:42:12.603Z,34.77
2017-11-03T19:44:41.078Z,36.33
2017-11-03T19:47:09.453Z,33.97
2017-11-03T19:49:37.843Z,34.63
2017-11-03T19:52:08.020Z,32.40
2017-11-03T19:54:37.160Z,30.80
2017-11-03T19:57:05.198Z,31.30
2017-11-03T19:59:33.809Z,29.30
2017-11-03T20:02:02.227Z,27.93
2017-11-03T20:04:30.619Z,30.80
2017-11-03T20:06:59.772Z,29.07
2017-11-03T20:09:28.148Z,27.17
2017-11-03T20:11:56.709Z,26.53
2017-11-03T20:14:25.291Z,27.40
2017-11-03T20:16:53.767Z,28.30
2017-11-03T20:19:22.150Z,24.20
2017-11-03T20:21:50.600Z,26.63
2017-11-03T20:24:18.995Z,23.50
2017-11-03T20:26:47.679Z,25.07
2017-11-03T20:29:16.065Z,24.73
2017-11-03T20:31:44.436Z,25.20
2017-11-03T20:34:12.797Z,25.43
2017-11-03T20:36:41.159Z,24.20
2017-11-03T20:39:11.214Z,22.60
2017-11-03T20:41:39.806Z,22.80
2017-11-03T20:44:08.179Z,23.00
2017-11-03T20:46:36.552Z,21.87
2017-11-03T20:49:05.016Z,21.10
2017-11-03T20:51:33.396Z,21.90
2017-11-03T20:54:01.830Z,20.93
2017-11-03T20:56:30.443Z,21.27
2017-11-03T20:58:58.821Z,20.20
2017-11-03T21:01:27.723Z,20.90
2017-11-03T21:03:56.109Z,20.30
2017-11-03T21:06:24.487Z,19.53
2017-11-03T21:08:52.871Z,18.07
2017-11-03T21:11:21.429Z,18.03
2017-11-03T21:13:49.870Z,18.20
2017-11-03T21:16:18.245Z,19.20
2017-11-03T21:18:46.612Z,18.70
2017-11-03T21:21:14.983Z,18.60
2017-11-03T21:23:43.396Z,18.17
2017-11-03T21:26:11.757Z,17.63
2017-11-03T21:28:40.252Z,20.30
2017-11-03T21:31:08.607Z,18.40
2017-11-03T21:33:37.757Z,17.63
2017-11-03T21:36:06.126Z,19.80
2017-11-03T21:38:34.300Z,17.90
2017-11-03T21:41:02.872Z,19.37
2017-11-03T21:43:31.634Z,17.83
2017-11-03T21:46:00.008Z,18.50
2017-11-03T21:48:30.126Z,19.80
2017-11-03T21:50:58.545Z,18.77
2017-11-03T21:53:26.916Z,17.97
2017-11-03T21:55:55.288Z,19.80
2017-11-03T21:58:23.638Z,21.10
2017-11-03T22:00:52.025Z,19.20
2017-11-03T22:03:20.996Z,18.90
2017-11-03T22:05:49.359Z,20.60
2017-11-03T22:08:17.732Z,19.60
2017-11-03T22:10:46.101Z,19.90
2017-11-03T22:13:14.476Z,21.17
2017-11-03T22:15:42.820Z,21.37
2017-11-03T22:18:12.616Z,21.30
2017-11-03T22:20:40.985Z,20.57
2017-11-03T22:23:09.374Z,19.10
2017-11-03T22:25:37.746Z,20.20
2017-11-03T22:28:06.101Z,21.70
2017-11-03T22:30:34.478Z,22.77
2017-11-03T22:33:03.403Z,21.40
2017-11-03T22:35:32.342Z,21.63
2017-11-03T22:38:00.925Z,21.23
2017-11-03T22:40:29.279Z,22.30
2017-11-03T22:42:57.804Z,21.00
2017-11-03T22:45:26.183Z,20.77
2017-11-03T22:47:54.554Z,23.00
2017-11-03T22:50:23.135Z,24.37
2017-11-03T22:52:51.560Z,22.33
2017-11-03T22:55:20.688Z,24.50
2017-11-03T22:57:49.052Z,24.50
2017-11-03T23:00:17.416Z,23.53
2017-11-03T23:02:45.807Z,23.30
2017-11-03T23:05:14.200Z,23.63
2017-11-03T23:07:43.329Z,22.83
2017-11-03T23:10:12.215Z,22.47
2017-11-03T23:12:42.299Z,23.27
2017-11-03T23:15:10.667Z,23.80
2017-11-03T23:17:39.823Z,24.53
2017-11-03T23:20:08.957Z,22.20
2017-11-03T23:22:37.663Z,23.00
2017-11-03T23:25:06.032Z,25.00
2017-11-03T23:27:34.624Z,24.33
2017-11-03T23:30:03.065Z,24.20
2017-11-03T23:32:31.447Z,25.80
2017-11-03T23:35:00.074Z,25.80
2017-11-03T23:37:28.958Z,23.40
2017-11-03T23:39:57.320Z,24.30
2017-11-03T23:42:26.068Z,25.40
2017-11-03T23:44:54.483Z,24.20
2017-11-03T23:47:22.872Z,27.73
2017-11-03T23:49:51.299Z,25.67
2017-11-03T23:52:19.667Z,27.40
2017-11-03T23:54:48.582Z,27.67
2017-11-03T23:57:17.044Z,25.10
2017-11-03T23:59:45.403Z,26.60
